sensor_id;sensor_type;location;lat;lon;timestamp;pressure;altitude;pressure_sealevel;temperature;humidity
63194;BME280;49289;51.670;5.624;2023-01-15T00:00:04;100015.22;;;12.70;59.47
63194;BME280;49289;51.670;5.624;2023-01-15T00:01:52;100022.63;;;13.31;58.46
63194;BME280;49289;51.670;5.624;2023-01-15T00:03:39;100007.57;;;13.58;57.07
63194;BME280;49289;51.670;5.624;2023-01-15T00:05:26;100014.71;;;13.14;57.44
63194;BME280;49289;51.670;5.624;2023-01-15T00:07:13;100038.72;;;12.64;59.08
63194;BME280;49289;51.670;5.624;2023-01-15T00:09:00;100021.00;;;12.83;58.36
63194;BME280;49289;51.670;5.624;2023-01-15T00:10:47;100016.70;;;12.75;58.05
63194;BME280;49289;51.670;5.624;2023-01-15T00:12:35;100036.61;;;12.70;59.10
63194;BME280;49289;51.670;5.624;2023-01-15T00:14:24;100040.59;;;12.76;58.80
63194;BME280;49289;51.670;5.624;2023-01-15T00:16:17;100023.11;;;12.86;57.91
63194;BME280;49289;51.670;5.624;2023-01-15T00:18:04;100021.69;;;12.94;56.73
63194;BME280;49289;51.670;5.624;2023-01-15T00:19:52;100025.11;;;12.42;57.72
63194;BME280;49289;51.670;5.624;2023-01-15T00:21:40;100023.47;;;12.55;57.68
63194;BME280;49289;51.670;5.624;2023-01-15T00:23:28;100044.31;;;12.72;56.88
63194;BME280;49289;51.670;5.624;2023-01-15T00:25:16;100045.77;;;12.76;56.85
63194;BME280;49289;51.670;5.624;2023-01-15T00:27:05;100041.57;;;12.40;56.58
63194;BME280;49289;51.670;5.624;2023-01-15T00:28:53;100047.20;;;12.48;57.04
63194;BME280;49289;51.670;5.624;2023-01-15T00:30:44;100049.87;;;12.39;57.05
63194;BME280;49289;51.670;5.624;2023-01-15T00:32:32;100014.66;;;12.03;56.18
63194;BME280;49289;51.670;5.624;2023-01-15T00:34:19;100025.36;;;12.76;56.02
63194;BME280;49289;51.670;5.624;2023-01-15T00:36:06;100046.55;;;12.64;56.05
63194;BME280;49289;51.670;5.624;2023-01-15T00:37:53;100040.61;;;12.99;55.27
63194;BME280;49289;51.670;5.624;2023-01-15T00:39:40;100011.97;;;12.77;55.56
63194;BME280;49289;51.670;5.624;2023-01-15T00:41:28;100038.45;;;12.93;55.40
63194;BME280;49289;51.670;5.624;2023-01-15T00:43:18;100033.19;;;12.76;55.47
63194;BME280;49289;51.670;5.624;2023-01-15T00:45:06;100032.55;;;13.06;54.87
63194;BME280;49289;51.670;5.624;2023-01-15T00:46:53;100038.07;;;12.85;55.21
63194;BME280;49289;51.670;5.624;2023-01-15T00:48:40;100045.22;;;12.76;54.83
63194;BME280;49289;51.670;5.624;2023-01-15T00:50:27;100020.62;;;13.12;54.64
63194;BME280;49289;51.670;5.624;2023-01-15T00:52:15;100051.38;;;12.76;55.43
63194;BME280;49289;51.670;5.624;2023-01-15T00:54:04;100038.58;;;12.38;55.98
63194;BME280;49289;51.670;5.624;2023-01-15T00:55:52;100054.05;;;12.85;55.31
63194;BME280;49289;51.670;5.624;2023-01-15T00:57:41;100057.73;;;12.61;55.46
63194;BME280;49289;51.670;5.624;2023-01-15T00:59:28;100056.61;;;12.69;55.11
63194;BME280;49289;51.670;5.624;2023-01-15T01:01:15;100049.25;;;13.16;55.05
63194;BME280;49289;51.670;5.624;2023-01-15T01:03:03;100052.66;;;13.17;55.36
63194;BME280;49289;51.670;5.624;2023-01-15T01:04:50;100064.95;;;12.96;55.89
63194;BME280;49289;51.670;5.624;2023-01-15T01:06:38;100062.85;;;12.57;55.28
63194;BME280;49289;51.670;5.624;2023-01-15T01:08:28;100057.03;;;12.79;55.92
63194;BME280;49289;51.670;5.624;2023-01-15T01:12:05;100053.99;;;13.53;54.71
63194;BME280;49289;51.670;5.624;2023-01-15T01:13:53;100043.69;;;12.26;57.42
63194;BME280;49289;51.670;5.624;2023-01-15T01:15:41;100042.72;;;12.62;56.18
63194;BME280;49289;51.670;5.624;2023-01-15T01:17:29;100041.27;;;12.52;56.57
63194;BME280;49289;51.670;5.624;2023-01-15T01:19:19;100040.34;;;12.97;56.10
63194;BME280;49289;51.670;5.624;2023-01-15T01:21:09;100055.59;;;12.73;56.43
63194;BME280;49289;51.670;5.624;2023-01-15T01:22:57;100059.39;;;12.38;57.24
63194;BME280;49289;51.670;5.624;2023-01-15T01:24:44;100058.91;;;12.95;56.45
63194;BME280;49289;51.670;5.624;2023-01-15T01:26:31;100054.28;;;13.22;55.40
63194;BME280;49289;51.670;5.624;2023-01-15T01:28:19;100056.12;;;13.08;55.00
63194;BME280;49289;51.670;5.624;2023-01-15T01:30:06;100053.36;;;12.60;57.38
63194;BME280;49289;51.670;5.624;2023-01-15T01:31:53;100053.57;;;12.95;55.98
63194;BME280;49289;51.670;5.624;2023-01-15T01:33:40;100055.02;;;12.72;56.20
63194;BME280;49289;51.670;5.624;2023-01-15T01:35:29;100055.38;;;13.00;56.06
63194;BME280;49289;51.670;5.624;2023-01-15T01:37:17;100039.61;;;12.56;57.20
63194;BME280;49289;51.670;5.624;2023-01-15T01:39:04;100046.97;;;12.57;57.06
63194;BME280;49289;51.670;5.624;2023-01-15T01:40:52;100030.52;;;12.15;57.49
63194;BME280;49289;51.670;5.624;2023-01-15T01:42:39;100043.63;;;12.42;57.58
63194;BME280;49289;51.670;5.624;2023-01-15T01:46:41;100055.89;;;12.62;57.14
63194;BME280;49289;51.670;5.624;2023-01-15T01:48:30;100051.06;;;12.52;57.78
63194;BME280;49289;51.670;5.624;2023-01-15T01:50:19;100037.09;;;12.07;58.73
63194;BME280;49289;51.670;5.624;2023-01-15T01:52:08;100041.84;;;12.52;56.85
63194;BME280;49289;51.670;5.624;2023-01-15T01:53:39;100065.20;;;12.96;55.59
63194;BME280;49289;51.670;5.624;2023-01-15T01:55:26;100065.07;;;12.69;56.58
63194;BME280;49289;51.670;5.624;2023-01-15T01:57:13;100044.88;;;12.56;57.13
63194;BME280;49289;51.670;5.624;2023-01-15T01:59:02;100055.64;;;12.36;57.82
63194;BME280;49289;51.670;5.624;2023-01-15T02:00:50;100060.20;;;12.25;56.88
63194;BME280;49289;51.670;5.624;2023-01-15T02:02:38;100064.56;;;12.48;57.51
63194;BME280;49289;51.670;5.624;2023-01-15T02:04:26;100059.76;;;12.79;57.02
63194;BME280;49289;51.670;5.624;2023-01-15T02:06:14;100053.30;;;12.22;57.28
63194;BME280;49289;51.670;5.624;2023-01-15T02:08:01;100050.17;;;11.97;58.40
63194;BME280;49289;51.670;5.624;2023-01-15T02:09:48;100050.97;;;12.06;57.90
63194;BME280;49289;51.670;5.624;2023-01-15T02:11:36;100057.29;;;12.13;58.37
63194;BME280;49289;51.670;5.624;2023-01-15T02:13:26;100055.50;;;12.56;57.62
63194;BME280;49289;51.670;5.624;2023-01-15T02:15:15;100067.75;;;12.36;57.99
63194;BME280;49289;51.670;5.624;2023-01-15T02:17:04;100066.78;;;12.33;57.42
63194;BME280;49289;51.670;5.624;2023-01-15T02:18:53;100063.55;;;12.02;58.44
63194;BME280;49289;51.670;5.624;2023-01-15T02:20:42;100046.30;;;12.15;57.09
63194;BME280;49289;51.670;5.624;2023-01-15T02:22:32;100038.28;;;12.05;58.47
63194;BME280;49289;51.670;5.624;2023-01-15T02:24:27;100052.92;;;12.17;57.05
63194;BME280;49289;51.670;5.624;2023-01-15T02:28:21;100049.83;;;12.52;56.05
63194;BME280;49289;51.670;5.624;2023-01-15T02:30:12;100050.57;;;12.03;57.34
63194;BME280;49289;51.670;5.624;2023-01-15T02:32:02;100045.44;;;12.51;56.27
63194;BME280;49289;51.670;5.624;2023-01-15T02:33:50;100051.34;;;12.50;55.58
63194;BME280;49289;51.670;5.624;2023-01-15T02:35:39;100030.56;;;12.36;56.21
63194;BME280;49289;51.670;5.624;2023-01-15T02:37:29;100032.03;;;12.88;55.12
63194;BME280;49289;51.670;5.624;2023-01-15T02:39:17;100043.95;;;12.31;56.13
63194;BME280;49289;51.670;5.624;2023-01-15T02:41:04;100043.41;;;12.61;55.69
63194;BME280;49289;51.670;5.624;2023-01-15T02:42:51;100043.06;;;12.40;55.81
63194;BME280;49289;51.670;5.624;2023-01-15T02:44:39;100015.84;;;12.28;55.87
63194;BME280;49289;51.670;5.624;2023-01-15T02:46:28;100015.27;;;12.41;55.98
63194;BME280;49289;51.670;5.624;2023-01-15T02:48:16;100038.55;;;12.28;56.50
63194;BME280;49289;51.670;5.624;2023-01-15T02:50:05;100021.00;;;11.94;57.06
63194;BME280;49289;51.670;5.624;2023-01-15T02:51:54;100032.94;;;12.62;55.74
63194;BME280;49289;51.670;5.624;2023-01-15T02:53:43;100034.45;;;12.18;56.71
63194;BME280;49289;51.670;5.624;2023-01-15T02:55:31;100032.16;;;12.82;56.06
63194;BME280;49289;51.670;5.624;2023-01-15T02:57:17;100027.98;;;12.31;56.50
63194;BME280;49289;51.670;5.624;2023-01-15T02:59:07;100026.52;;;12.31;56.81
63194;BME280;49289;51.670;5.624;2023-01-15T03:00:53;100013.90;;;11.96;57.48
63194;BME280;49289;51.670;5.624;2023-01-15T03:02:43;100040.94;;;12.10;56.92
63194;BME280;49289;51.670;5.624;2023-01-15T03:04:32;100020.08;;;12.26;56.44
63194;BME280;49289;51.670;5.624;2023-01-15T03:06:20;100030.06;;;11.91;57.57
63194;BME280;49289;51.670;5.624;2023-01-15T03:08:08;100010.04;;;12.07;56.94
63194;BME280;49289;51.670;5.624;2023-01-15T03:09:55;100014.03;;;12.24;56.50
63194;BME280;49289;51.670;5.624;2023-01-15T03:11:45;100017.48;;;11.91;56.51
63194;BME280;49289;51.670;5.624;2023-01-15T03:13:34;100035.55;;;12.15;57.29
63194;BME280;49289;51.670;5.624;2023-01-15T03:15:19;100020.23;;;11.84;57.33
63194;BME280;49289;51.670;5.624;2023-01-15T03:17:10;100032.88;;;11.59;58.15
63194;BME280;49289;51.670;5.624;2023-01-15T03:18:58;100039.48;;;11.74;57.49
63194;BME280;49289;51.670;5.624;2023-01-15T03:20:46;100037.23;;;11.36;58.23
63194;BME280;49289;51.670;5.624;2023-01-15T03:22:33;100026.89;;;12.03;57.12
63194;BME280;49289;51.670;5.624;2023-01-15T03:24:23;100031.41;;;12.57;56.08
63194;BME280;49289;51.670;5.624;2023-01-15T03:26:08;100037.82;;;12.48;55.73
63194;BME280;49289;51.670;5.624;2023-01-15T03:27:57;100038.87;;;11.95;56.50
63194;BME280;49289;51.670;5.624;2023-01-15T03:29:45;100030.16;;;11.87;56.83
63194;BME280;49289;51.670;5.624;2023-01-15T03:31:31;100033.59;;;12.23;56.31
63194;BME280;49289;51.670;5.624;2023-01-15T03:33:18;100025.43;;;11.93;57.00
63194;BME280;49289;51.670;5.624;2023-01-15T03:35:38;100018.19;;;11.81;56.23
63194;BME280;49289;51.670;5.624;2023-01-15T03:36:55;100007.83;;;12.01;56.15
63194;BME280;49289;51.670;5.624;2023-01-15T03:38:42;100018.51;;;12.70;55.07
63194;BME280;49289;51.670;5.624;2023-01-15T03:40:29;100021.41;;;11.97;56.54
63194;BME280;49289;51.670;5.624;2023-01-15T03:42:26;100018.11;;;11.79;56.59
63194;BME280;49289;51.670;5.624;2023-01-15T03:44:16;100000.84;;;12.01;55.26
63194;BME280;49289;51.670;5.624;2023-01-15T03:46:02;100001.50;;;11.93;56.21
63194;BME280;49289;51.670;5.624;2023-01-15T03:47:55;100026.48;;;12.06;56.58
63194;BME280;49289;51.670;5.624;2023-01-15T03:49:46;100003.36;;;11.47;56.93
63194;BME280;49289;51.670;5.624;2023-01-15T03:51:35;100036.22;;;12.08;56.19
63194;BME280;49289;51.670;5.624;2023-01-15T03:53:22;100022.09;;;11.81;56.93
63194;BME280;49289;51.670;5.624;2023-01-15T03:55:14;100025.28;;;11.63;56.91
63194;BME280;49289;51.670;5.624;2023-01-15T03:57:04;100027.73;;;11.93;56.39
63194;BME280;49289;51.670;5.624;2023-01-15T03:58:52;100003.05;;;11.72;56.01
63194;BME280;49289;51.670;5.624;2023-01-15T04:00:39;100023.57;;;12.36;55.59
63194;BME280;49289;51.670;5.624;2023-01-15T04:02:25;100016.45;;;12.01;55.59
63194;BME280;49289;51.670;5.624;2023-01-15T04:04:13;100010.59;;;12.37;54.54
63194;BME280;49289;51.670;5.624;2023-01-15T04:06:02;100003.12;;;12.00;55.29
63194;BME280;49289;51.670;5.624;2023-01-15T04:07:50;100003.83;;;11.80;55.99
63194;BME280;49289;51.670;5.624;2023-01-15T04:09:41;100003.55;;;12.46;54.72
63194;BME280;49289;51.670;5.624;2023-01-15T04:11:33;99996.55;;;11.15;57.35
63194;BME280;49289;51.670;5.624;2023-01-15T04:13:20;100006.63;;;11.61;56.41
63194;BME280;49289;51.670;5.624;2023-01-15T04:15:07;100010.67;;;11.81;55.88
63194;BME280;49289;51.670;5.624;2023-01-15T04:16:54;100010.03;;;12.06;55.45
63194;BME280;49289;51.670;5.624;2023-01-15T04:18:43;100009.73;;;12.23;55.28
63194;BME280;49289;51.670;5.624;2023-01-15T04:20:31;100019.16;;;12.03;55.33
63194;BME280;49289;51.670;5.624;2023-01-15T04:22:20;100012.27;;;11.97;55.80
63194;BME280;49289;51.670;5.624;2023-01-15T04:24:07;99984.30;;;11.30;56.18
63194;BME280;49289;51.670;5.624;2023-01-15T04:25:54;100001.36;;;11.57;56.27
63194;BME280;49289;51.670;5.624;2023-01-15T04:27:41;100004.24;;;12.13;55.58
63194;BME280;49289;51.670;5.624;2023-01-15T04:29:29;100007.86;;;11.87;55.09
63194;BME280;49289;51.670;5.624;2023-01-15T04:31:17;100012.77;;;12.16;55.22
63194;BME280;49289;51.670;5.624;2023-01-15T04:33:05;100013.74;;;11.52;55.95
63194;BME280;49289;51.670;5.624;2023-01-15T04:34:52;99999.46;;;11.42;56.44
63194;BME280;49289;51.670;5.624;2023-01-15T04:36:40;99983.23;;;12.02;55.11
63194;BME280;49289;51.670;5.624;2023-01-15T04:38:29;99997.03;;;12.14;54.47
63194;BME280;49289;51.670;5.624;2023-01-15T04:40:18;100010.19;;;11.44;56.17
63194;BME280;49289;51.670;5.624;2023-01-15T04:42:07;99995.88;;;10.77;57.43
63194;BME280;49289;51.670;5.624;2023-01-15T04:43:55;100006.34;;;11.05;57.01
63194;BME280;49289;51.670;5.624;2023-01-15T04:45:43;99999.05;;;11.03;57.14
63194;BME280;49289;51.670;5.624;2023-01-15T04:47:31;99996.17;;;10.87;57.68
63194;BME280;49289;51.670;5.624;2023-01-15T04:49:18;99997.86;;;11.72;55.55
63194;BME280;49289;51.670;5.624;2023-01-15T04:51:07;100003.03;;;11.47;55.79
63194;BME280;49289;51.670;5.624;2023-01-15T04:52:55;100025.03;;;11.41;56.32
63194;BME280;49289;51.670;5.624;2023-01-15T04:54:43;100008.47;;;11.44;56.15
63194;BME280;49289;51.670;5.624;2023-01-15T04:56:31;100008.59;;;11.30;56.13
63194;BME280;49289;51.670;5.624;2023-01-15T04:58:18;100012.95;;;10.89;57.04
63194;BME280;49289;51.670;5.624;2023-01-15T05:00:06;100024.55;;;11.63;55.75
63194;BME280;49289;51.670;5.624;2023-01-15T05:01:54;100011.88;;;11.29;55.73
63194;BME280;49289;51.670;5.624;2023-01-15T05:03:42;100015.27;;;11.47;55.90
63194;BME280;49289;51.670;5.624;2023-01-15T05:05:31;100031.86;;;11.27;56.41
63194;BME280;49289;51.670;5.624;2023-01-15T05:07:19;100030.95;;;11.05;56.77
63194;BME280;49289;51.670;5.624;2023-01-15T05:09:08;100033.84;;;11.48;55.99
63194;BME280;49289;51.670;5.624;2023-01-15T05:10:55;100038.53;;;11.16;57.39
63194;BME280;49289;51.670;5.624;2023-01-15T05:12:42;100029.77;;;11.49;56.45
63194;BME280;49289;51.670;5.624;2023-01-15T05:14:29;100022.08;;;11.27;56.18
63194;BME280;49289;51.670;5.624;2023-01-15T05:16:24;100039.56;;;11.15;57.17
63194;BME280;49289;51.670;5.624;2023-01-15T05:18:12;100010.57;;;10.82;57.63
63194;BME280;49289;51.670;5.624;2023-01-15T05:19:59;100030.59;;;11.69;56.00
63194;BME280;49289;51.670;5.624;2023-01-15T05:21:46;100032.06;;;11.13;56.61
63194;BME280;49289;51.670;5.624;2023-01-15T05:23:34;100008.19;;;11.50;56.09
63194;BME280;49289;51.670;5.624;2023-01-15T05:25:20;100025.94;;;11.15;57.16
63194;BME280;49289;51.670;5.624;2023-01-15T05:27:09;100007.01;;;11.06;56.40
63194;BME280;49289;51.670;5.624;2023-01-15T05:28:58;100033.16;;;11.11;57.44
63194;BME280;49289;51.670;5.624;2023-01-15T05:30:44;100004.59;;;10.71;57.99
63194;BME280;49289;51.670;5.624;2023-01-15T05:32:31;100026.70;;;10.79;57.60
63194;BME280;49289;51.670;5.624;2023-01-15T05:34:20;100020.82;;;11.36;56.24
63194;BME280;49289;51.670;5.624;2023-01-15T05:36:13;100024.70;;;11.61;56.38
63194;BME280;49289;51.670;5.624;2023-01-15T05:38:00;99997.77;;;11.26;56.61
63194;BME280;49289;51.670;5.624;2023-01-15T05:39:47;100018.76;;;11.25;57.09
63194;BME280;49289;51.670;5.624;2023-01-15T05:41:34;100016.44;;;10.97;57.29
63194;BME280;49289;51.670;5.624;2023-01-15T05:43:22;100022.19;;;11.02;56.69
63194;BME280;49289;51.670;5.624;2023-01-15T05:45:11;100012.68;;;11.41;56.75
63194;BME280;49289;51.670;5.624;2023-01-15T05:47:00;99988.80;;;11.17;56.27
63194;BME280;49289;51.670;5.624;2023-01-15T05:48:47;99998.84;;;11.05;56.65
63194;BME280;49289;51.670;5.624;2023-01-15T05:50:36;100022.20;;;10.98;56.95
63194;BME280;49289;51.670;5.624;2023-01-15T05:52:24;100021.81;;;11.10;56.48
63194;BME280;49289;51.670;5.624;2023-01-15T05:55:21;100022.33;;;10.93;55.88
63194;BME280;49289;51.670;5.624;2023-01-15T05:57:08;100018.23;;;10.93;56.19
63194;BME280;49289;51.670;5.624;2023-01-15T05:58:55;100009.14;;;11.12;56.15
63194;BME280;49289;51.670;5.624;2023-01-15T06:00:43;99989.76;;;11.16;56.19
63194;BME280;49289;51.670;5.624;2023-01-15T06:02:31;100010.91;;;11.26;56.20
63194;BME280;49289;51.670;5.624;2023-01-15T06:04:20;100006.72;;;11.07;56.28
63194;BME280;49289;51.670;5.624;2023-01-15T06:06:09;100013.04;;;11.14;56.06
63194;BME280;49289;51.670;5.624;2023-01-15T06:07:54;100004.13;;;11.32;55.53
63194;BME280;49289;51.670;5.624;2023-01-15T06:09:42;100003.86;;;11.35;55.48
63194;BME280;49289;51.670;5.624;2023-01-15T06:11:30;99986.48;;;10.65;56.55
63194;BME280;49289;51.670;5.624;2023-01-15T06:13:18;99997.95;;;11.05;55.90
63194;BME280;49289;51.670;5.624;2023-01-15T06:15:07;100017.98;;;11.35;56.38
63194;BME280;49289;51.670;5.624;2023-01-15T06:16:55;99998.70;;;11.44;54.72
63194;BME280;49289;51.670;5.624;2023-01-15T06:18:43;100014.84;;;11.41;55.61
63194;BME280;49289;51.670;5.624;2023-01-15T06:20:30;100021.48;;;11.56;55.19
63194;BME280;49289;51.670;5.624;2023-01-15T06:22:17;100007.30;;;11.64;55.05
63194;BME280;49289;51.670;5.624;2023-01-15T06:24:04;100023.55;;;11.42;56.49
63194;BME280;49289;51.670;5.624;2023-01-15T06:25:53;100037.03;;;11.02;56.39
63194;BME280;49289;51.670;5.624;2023-01-15T06:27:40;100029.91;;;11.12;56.70
63194;BME280;49289;51.670;5.624;2023-01-15T06:29:28;100040.91;;;11.06;57.10
63194;BME280;49289;51.670;5.624;2023-01-15T06:31:18;100040.75;;;10.88;57.96
63194;BME280;49289;51.670;5.624;2023-01-15T06:33:04;100034.73;;;11.12;57.46
63194;BME280;49289;51.670;5.624;2023-01-15T06:34:51;100049.27;;;11.27;57.23
63194;BME280;49289;51.670;5.624;2023-01-15T06:36:38;100049.63;;;10.77;58.33
63194;BME280;49289;51.670;5.624;2023-01-15T06:38:26;100038.04;;;10.91;58.54
63194;BME280;49289;51.670;5.624;2023-01-15T06:40:15;100046.66;;;11.28;58.21
63194;BME280;49289;51.670;5.624;2023-01-15T06:42:03;100035.97;;;11.08;57.96
63194;BME280;49289;51.670;5.624;2023-01-15T06:43:51;100054.31;;;11.64;57.63
63194;BME280;49289;51.670;5.624;2023-01-15T06:45:39;100053.81;;;11.83;57.03
63194;BME280;49289;51.670;5.624;2023-01-15T06:47:25;100036.52;;;11.69;57.11
63194;BME280;49289;51.670;5.624;2023-01-15T06:49:12;100050.94;;;11.58;57.41
63194;BME280;49289;51.670;5.624;2023-01-15T06:50:59;100053.14;;;11.06;58.81
63194;BME280;49289;51.670;5.624;2023-01-15T06:52:46;100029.03;;;11.07;58.59
63194;BME280;49289;51.670;5.624;2023-01-15T06:54:33;100041.08;;;11.35;58.12
63194;BME280;49289;51.670;5.624;2023-01-15T06:56:20;100041.81;;;11.71;56.76
63194;BME280;49289;51.670;5.624;2023-01-15T06:58:07;100036.62;;;11.47;57.49
63194;BME280;49289;51.670;5.624;2023-01-15T06:59:54;100035.14;;;10.90;58.85
63194;BME280;49289;51.670;5.624;2023-01-15T07:01:42;100025.85;;;10.81;58.29
63194;BME280;49289;51.670;5.624;2023-01-15T07:03:30;100051.44;;;11.03;58.21
63194;BME280;49289;51.670;5.624;2023-01-15T07:05:19;100048.52;;;10.66;59.24
63194;BME280;49289;51.670;5.624;2023-01-15T07:07:06;100064.45;;;11.08;58.70
63194;BME280;49289;51.670;5.624;2023-01-15T07:08:53;100064.02;;;10.72;58.62
63194;BME280;49289;51.670;5.624;2023-01-15T07:10:41;100072.71;;;10.49;58.59
63194;BME280;49289;51.670;5.624;2023-01-15T07:12:29;100071.20;;;11.06;58.10
63194;BME280;49289;51.670;5.624;2023-01-15T07:14:19;100041.13;;;11.40;56.33
63194;BME280;49289;51.670;5.624;2023-01-15T07:16:07;100071.91;;;10.52;58.17
63194;BME280;49289;51.670;5.624;2023-01-15T07:17:58;100065.59;;;10.93;58.03
63194;BME280;49289;51.670;5.624;2023-01-15T07:19:45;100057.97;;;11.02;56.91
63194;BME280;49289;51.670;5.624;2023-01-15T07:21:32;100064.53;;;10.93;57.32
63194;BME280;49289;51.670;5.624;2023-01-15T07:23:21;100047.81;;;10.88;56.77
63194;BME280;49289;51.670;5.624;2023-01-15T07:25:09;100048.81;;;11.07;56.89
63194;BME280;49289;51.670;5.624;2023-01-15T07:26:56;100060.24;;;10.99;57.10
63194;BME280;49289;51.670;5.624;2023-01-15T07:28:44;100069.59;;;10.58;57.85
63194;BME280;49289;51.670;5.624;2023-01-15T07:30:33;100076.34;;;10.90;57.49
63194;BME280;49289;51.670;5.624;2023-01-15T07:32:21;100070.50;;;10.99;57.32
63194;BME280;49289;51.670;5.624;2023-01-15T07:34:08;100077.73;;;10.93;57.20
63194;BME280;49289;51.670;5.624;2023-01-15T07:35:55;100076.72;;;10.58;58.11
63194;BME280;49289;51.670;5.624;2023-01-15T07:37:42;100049.97;;;10.57;57.49
63194;BME280;49289;51.670;5.624;2023-01-15T07:39:29;100077.91;;;10.96;57.00
63194;BME280;49289;51.670;5.624;2023-01-15T07:41:16;100073.34;;;10.42;58.06
63194;BME280;49289;51.670;5.624;2023-01-15T07:43:03;100065.39;;;10.38;58.26
63194;BME280;49289;51.670;5.624;2023-01-15T07:44:51;100083.17;;;11.15;56.08
63194;BME280;49289;51.670;5.624;2023-01-15T07:46:40;100064.79;;;10.50;57.64
63194;BME280;49289;51.670;5.624;2023-01-15T07:48:28;100088.66;;;11.05;56.75
63194;BME280;49289;51.670;5.624;2023-01-15T07:50:17;100071.16;;;10.72;56.80
63194;BME280;49289;51.670;5.624;2023-01-15T07:52:03;100067.94;;;11.25;55.92
63194;BME280;49289;51.670;5.624;2023-01-15T07:53:50;100084.97;;;10.96;56.78
63194;BME280;49289;51.670;5.624;2023-01-15T07:55:37;100085.97;;;10.60;57.01
63194;BME280;49289;51.670;5.624;2023-01-15T07:57:24;100086.95;;;10.81;56.03
63194;BME280;49289;51.670;5.624;2023-01-15T07:59:11;100081.59;;;10.70;57.23
63194;BME280;49289;51.670;5.624;2023-01-15T08:00:59;100073.38;;;10.72;57.03
63194;BME280;49289;51.670;5.624;2023-01-15T08:02:48;100093.17;;;10.47;57.23
63194;BME280;49289;51.670;5.624;2023-01-15T08:04:36;100070.58;;;10.46;57.32
63194;BME280;49289;51.670;5.624;2023-01-15T08:06:24;100084.40;;;10.50;57.50
63194;BME280;49289;51.670;5.624;2023-01-15T08:08:18;100062.75;;;10.77;56.40
63194;BME280;49289;51.670;5.624;2023-01-15T08:10:05;100070.55;;;10.88;56.17
63194;BME280;49289;51.670;5.624;2023-01-15T08:11:52;100071.16;;;10.12;57.88
63194;BME280;49289;51.670;5.624;2023-01-15T08:13:39;100076.36;;;10.37;57.13
63194;BME280;49289;51.670;5.624;2023-01-15T08:15:26;100088.50;;;10.56;57.47
63194;BME280;49289;51.670;5.624;2023-01-15T08:17:15;100092.88;;;10.55;57.36
63194;BME280;49289;51.670;5.624;2023-01-15T08:19:03;100077.64;;;10.63;56.88
63194;BME280;49289;51.670;5.624;2023-01-15T08:20:51;100076.80;;;9.99;57.72
63194;BME280;49289;51.670;5.624;2023-01-15T08:22:40;100072.66;;;10.10;58.01
63194;BME280;49289;51.670;5.624;2023-01-15T08:24:28;100096.95;;;10.56;57.39
63194;BME280;49289;51.670;5.624;2023-01-15T08:26:16;100083.98;;;10.73;56.33
63194;BME280;49289;51.670;5.624;2023-01-15T08:28:05;100105.11;;;10.92;56.12
63194;BME280;49289;51.670;5.624;2023-01-15T08:29:53;100088.67;;;10.23;57.34
63194;BME280;49289;51.670;5.624;2023-01-15T08:31:41;100108.34;;;10.59;57.34
63194;BME280;49289;51.670;5.624;2023-01-15T08:33:30;100084.58;;;10.60;56.58
63194;BME280;49289;51.670;5.624;2023-01-15T08:35:18;100087.64;;;9.91;57.83
63194;BME280;49289;51.670;5.624;2023-01-15T08:37:06;100101.63;;;9.94;58.76
63194;BME280;49289;51.670;5.624;2023-01-15T08:38:56;100094.27;;;10.18;57.62
63194;BME280;49289;51.670;5.624;2023-01-15T08:40:44;100107.28;;;10.67;56.53
63194;BME280;49289;51.670;5.624;2023-01-15T08:42:32;100093.41;;;10.19;57.60
63194;BME280;49289;51.670;5.624;2023-01-15T08:44:21;100095.91;;;10.57;56.90
63194;BME280;49289;51.670;5.624;2023-01-15T08:46:09;100103.83;;;10.83;55.63
63194;BME280;49289;51.670;5.624;2023-01-15T08:47:59;100076.64;;;10.65;55.99
63194;BME280;49289;51.670;5.624;2023-01-15T08:49:47;100098.38;;;10.36;56.75
63194;BME280;49289;51.670;5.624;2023-01-15T08:51:36;100093.37;;;10.27;57.24
63194;BME280;49289;51.670;5.624;2023-01-15T08:53:23;100093.72;;;10.69;55.57
63194;BME280;49289;51.670;5.624;2023-01-15T08:55:10;100093.88;;;10.36;56.30
63194;BME280;49289;51.670;5.624;2023-01-15T08:56:59;100068.94;;;9.79;57.36
63194;BME280;49289;51.670;5.624;2023-01-15T08:58:48;100062.11;;;10.23;56.62
63194;BME280;49289;51.670;5.624;2023-01-15T09:00:36;100077.86;;;10.17;56.35
63194;BME280;49289;51.670;5.624;2023-01-15T09:02:24;100085.14;;;10.34;56.34
63194;BME280;49289;51.670;5.624;2023-01-15T09:04:13;100093.05;;;10.58;56.21
63194;BME280;49289;51.670;5.624;2023-01-15T09:06:02;100084.36;;;10.30;56.29
63194;BME280;49289;51.670;5.624;2023-01-15T09:07:49;100089.55;;;9.84;57.72
63194;BME280;49289;51.670;5.624;2023-01-15T09:09:36;100089.38;;;10.36;56.79
63194;BME280;49289;51.670;5.624;2023-01-15T09:11:23;100082.46;;;9.96;57.44
63194;BME280;49289;51.670;5.624;2023-01-15T09:13:11;100061.47;;;10.06;56.93
63194;BME280;49289;51.670;5.624;2023-01-15T09:15:00;100078.92;;;10.82;56.30
63194;BME280;49289;51.670;5.624;2023-01-15T09:16:49;100071.45;;;10.57;55.97
63194;BME280;49289;51.670;5.624;2023-01-15T09:18:37;100065.11;;;10.36;56.30
63194;BME280;49289;51.670;5.624;2023-01-15T09:20:25;100067.84;;;10.54;56.49
63194;BME280;49289;51.670;5.624;2023-01-15T09:22:12;100087.30;;;10.82;56.40
63194;BME280;49289;51.670;5.624;2023-01-15T09:23:59;100061.73;;;11.53;53.88
63194;BME280;49289;51.670;5.624;2023-01-15T09:25:46;100090.27;;;11.50;53.51
63194;BME280;49289;51.670;5.624;2023-01-15T09:27:33;100086.22;;;10.77;55.36
63194;BME280;49289;51.670;5.624;2023-01-15T09:29:20;100066.89;;;10.86;55.54
63194;BME280;49289;51.670;5.624;2023-01-15T09:31:07;100066.33;;;11.23;54.39